Latest Weather Observations for Melville Water

IDW60801

Issued at 2:13 pm WST Saturday 10 December 2022 (issued every 10 minutes, with the page automatically refreshed every 10 minutes)

About weather observations | Map of weather stations | Latest weather observations for WA | Other Formats
Station Details ID: 009091 Name: INNER DOLPHIN PYLON Lat: -31.99 Lon: 115.83 Height: 0.0 m
Data from the previous 72 hours. | See also: Recent months at Melville Water
Date/Time
WST
Temp
°C
App
Temp
°C
Dew
Point
°C
Rel
Hum
%
Delta-T
°C
Wind Press
QNH
hPa
Press
MSL
hPa
Rain since
9am
mm
Dir  Spd
km/h
Gust
km/h
Spd
kts
Gust
kts
10/02:00pm - - - - - SSW 35 44 19 24 - - -
10/01:30pm - - - - - SSW 37 46 20 25 - - -
10/01:00pm - - - - - SSW 37 43 20 23 - - -
10/12:30pm - - - - - SSW 32 41 17 22 - - -
10/12:00pm - - - - - SSW 17 28 9 15 - - -
10/11:30am - - - - - S 19 26 10 14 - - -
10/11:00am - - - - - S 17 24 9 13 - - -
10/10:30am - - - - - S 22 33 12 18 - - -
10/10:00am - - - - - SSE 17 26 9 14 - - -
10/09:30am - - - - - SE 22 32 12 17 - - -
10/09:00am - - - - - SE 20 30 11 16 - - -
10/08:30am - - - - - SE 19 28 10 15 - - -
10/08:00am - - - - - ESE 20 28 11 15 - - -
10/07:30am - - - - - ESE 19 26 10 14 - - -
10/07:00am - - - - - SE 15 22 8 12 - - -
10/06:30am - - - - - SSE 13 19 7 10 - - -
10/06:00am - - - - - SE 11 20 6 11 - - -
10/05:30am - - - - - SE 11 17 6 9 - - -
10/05:00am - - - - - ESE 15 19 8 10 - - -
10/04:30am - - - - - SE 15 20 8 11 - - -
10/04:00am - - - - - SSE 13 19 7 10 - - -
10/03:30am - - - - - SSE 13 19 7 10 - - -
10/03:00am - - - - - SSE 15 20 8 11 - - -
10/02:30am - - - - - SSE 15 20 8 11 - - -
10/02:00am - - - - - SSE 17 20 9 11 - - -
10/01:30am - - - - - SSE 19 22 10 12 - - -
10/01:00am - - - - - SSE 17 22 9 12 - - -
10/12:30am - - - - - SSE 19 22 10 12 - - -
10/12:00am - - - - - SSE 19 24 10 13 - - -
 
Date/Time
WST
Temp
°C
App
Temp
°C
Dew
Point
°C
Rel
Hum
%
Delta-T
°C
Wind Press
QNH
hPa
Press
MSL
hPa
Rain since
9am
mm
Dir  Spd
km/h
Gust
km/h
Spd
kts
Gust
kts
09/11:30pm - - - - - SSE 20 28 11 15 - - -
09/11:00pm - - - - - S 15 19 8 10 - - -
09/10:30pm - - - - - S 15 20 8 11 - - -
09/10:00pm - - - - - SSW 17 19 9 10 - - -
09/09:30pm - - - - - SSW 20 24 11 13 - - -
09/09:00pm - - - - - S 22 28 12 15 - - -
09/08:30pm - - - - - S 26 33 14 18 - - -
09/08:00pm - - - - - SSW 22 28 12 15 - - -
09/07:30pm - - - - - SSW 24 30 13 16 - - -
09/07:00pm - - - - - SSW 24 32 13 17 - - -
09/06:30pm - - - - - SSW 26 35 14 19 - - -
09/06:00pm - - - - - SSW 26 33 14 18 - - -
09/05:30pm - - - - - SSW 28 35 15 19 - - -
09/05:00pm - - - - - SSW 28 35 15 19 - - -
09/04:30pm - - - - - SSW 28 33 15 18 - - -
09/04:00pm - - - - - SW 30 37 16 20 - - -
09/03:30pm - - - - - SW 30 37 16 20 - - -
09/03:00pm - - - - - SW 26 32 14 17 - - -
09/02:30pm - - - - - SW 24 35 13 19 - - -
09/02:00pm - - - - - SW 24 30 13 16 - - -
09/01:30pm - - - - - SW 22 32 12 17 - - -
09/01:00pm - - - - - SW 24 30 13 16 - - -
09/12:30pm - - - - - SW 22 30 12 16 - - -
09/12:00pm - - - - - SW 20 32 11 17 - - -
09/11:30am - - - - - SW 20 26 11 14 - - -
09/11:00am - - - - - SW 19 24 10 13 - - -
09/10:30am - - - - - SW 20 26 11 14 - - -
09/10:00am - - - - - SSW 15 19 8 10 - - -
09/09:30am - - - - - SSW 17 24 9 13 - - -
09/09:00am - - - - - SSW 7 13 4 7 - - -
09/08:30am - - - - - S 11 20 6 11 - - -
09/08:00am - - - - - S 13 19 7 10 - - -
09/07:30am - - - - - SSE 13 19 7 10 - - -
09/07:00am - - - - - SSE 15 22 8 12 - - -
09/06:30am - - - - - SSE 15 20 8 11 - - -
09/06:00am - - - - - SSE 13 17 7 9 - - -
09/05:30am - - - - - SSE 17 24 9 13 - - -
09/05:00am - - - - - S 22 30 12 16 - - -
09/04:30am - - - - - SSW 24 30 13 16 - - -
09/04:00am - - - - - SSW 26 32 14 17 - - -
09/03:30am - - - - - SSW 24 32 13 17 - - -
09/03:00am - - - - - SSW 26 33 14 18 - - -
09/02:30am - - - - - SSW 26 35 14 19 - - -
09/02:00am - - - - - SSW 24 33 13 18 - - -
09/01:30am - - - - - SSW 28 35 15 19 - - -
09/01:00am - - - - - SSW 28 35 15 19 - - -
09/12:30am - - - - - SSW 26 33 14 18 - - -
09/12:00am - - - - - SSW 26 35 14 19 - - -
 
Date/Time
WST
Temp
°C
App
Temp
°C
Dew
Point
°C
Rel
Hum
%
Delta-T
°C
Wind Press
QNH
hPa
Press
MSL
hPa
Rain since
9am
mm
Dir  Spd
km/h
Gust
km/h
Spd
kts
Gust
kts
08/11:30pm - - - - - SSW 24 32 13 17 - - -
08/11:00pm - - - - - SSW 26 32 14 17 - - -
08/10:30pm - - - - - SSW 26 33 14 18 - - -
08/10:00pm - - - - - SSW 26 32 14 17 - - -
08/09:30pm - - - - - SSW 28 37 15 20 - - -
08/09:00pm - - - - - SSW 26 32 14 17 - - -
08/08:30pm - - - - - SSW 28 32 15 17 - - -
08/08:00pm - - - - - SSW 28 33 15 18 - - -
08/07:30pm - - - - - SSW 26 32 14 17 - - -
08/07:00pm - - - - - SSW 30 37 16 20 - - -
08/06:30pm - - - - - SSW 28 33 15 18 - - -
08/06:00pm - - - - - SSW 28 39 15 21 - - -
08/05:30pm - - - - - SSW 26 35 14 19 - - -
08/05:00pm - - - - - SSW 28 39 15 21 - - -
08/04:30pm - - - - - SSW 28 33 15 18 - - -
08/04:00pm - - - - - SW 26 32 14 17 - - -
08/03:30pm - - - - - SW 28 35 15 19 - - -
08/03:00pm - - - - - SW 30 39 16 21 - - -
08/02:30pm - - - - - SW 28 33 15 18 - - -
08/02:00pm - - - - - SW 28 33 15 18 - - -
08/01:30pm - - - - - SW 28 35 15 19 - - -
08/01:00pm - - - - - SW 28 35 15 19 - - -
08/12:30pm - - - - - SSW 28 33 15 18 - - -
08/12:00pm - - - - - SW 26 33 14 18 - - -
08/11:30am - - - - - SW 22 30 12 16 - - -
08/11:00am - - - - - SW 24 28 13 15 - - -
08/10:30am - - - - - SW 20 26 11 14 - - -
08/10:00am - - - - - SW 20 30 11 16 - - -
08/09:30am - - - - - SW 17 22 9 12 - - -
08/09:00am - - - - - SW 15 22 8 12 - - -
08/08:30am - - - - - SW 13 17 7 9 - - -
08/08:00am - - - - - SW 15 20 8 11 - - -
08/07:30am - - - - - SW 17 22 9 12 - - -
08/07:00am - - - - - SW 7 11 4 6 - - -
08/06:30am - - - - - SSE 13 17 7 9 - - -
08/06:00am - - - - - S 13 19 7 10 - - -
08/05:30am - - - - - ESE 19 32 10 17 - - -
08/05:00am - - - - - ESE 20 26 11 14 - - -
08/04:30am - - - - - ESE 24 32 13 17 - - -
08/04:00am - - - - - ESE 30 44 16 24 - - -
08/03:30am - - - - - E 26 39 14 21 - - -
08/03:00am - - - - - E 30 39 16 21 - - -
08/02:30am - - - - - SE 28 37 15 20 - - -
08/02:01am - - - - - SE 32 50 17 27 - - -
08/02:00am - - - - - SE 30 43 16 23 - - -
08/01:30am - - - - - SSE 26 33 14 18 - - -
08/01:00am - - - - - SSE 20 28 11 15 - - -
08/12:30am - - - - - SE 33 43 18 23 - - -
08/12:10am - - - - - SE 30 52 16 28 - - -
08/12:00am - - - - - SE 32 41 17 22 - - -
 
Date/Time
WST
Temp
°C
App
Temp
°C
Dew
Point
°C
Rel
Hum
%
Delta-T
°C
Wind Press
QNH
hPa
Press
MSL
hPa
Rain since
9am
mm
Dir  Spd
km/h
Gust
km/h
Spd
kts
Gust
kts
07/11:40pm - - - - - SE 41 59 22 32 - - -
07/11:30pm - - - - - SSE 43 56 23 30 - - -
07/11:22pm - - - - - SSE 33 52 18 28 - - -
07/11:00pm - - - - - SSW 41 50 22 27 - - -
07/10:57pm - - - - - SSW 35 48 19 26 - - -
07/10:52pm - - - - - S 30 44 16 24 - - -
07/10:48pm - - - - - SSE 32 50 17 27 - - -
07/10:33pm - - - - - SSE 41 59 22 32 - - -
07/10:30pm - - - - - SSE 43 59 23 32 - - -
07/10:27pm - - - - - SSE 44 63 24 34 - - -
07/10:12pm - - - - - S 52 69 28 37 - - -
07/10:08pm - - - - - SSW 46 69 25 37 - - -
07/10:04pm - - - - - SSW 39 63 21 34 - - -
07/10:02pm - - - - - S 37 56 20 30 - - -
07/10:00pm - - - - - SSE 37 59 20 32 - - -
07/09:58pm - - - - - SSE 39 59 21 32 - - -
07/09:50pm - - - - - SE 48 67 26 36 - - -
07/09:43pm - - - - - S 50 65 27 35 - - -
07/09:39pm - - - - - SSW 46 65 25 35 - - -
07/09:32pm - - - - - SSW 28 57 15 31 - - -
07/09:30pm - - - - - S 26 35 14 19 - - -
07/09:25pm - - - - - SSE 32 50 17 27 - - -
07/09:00pm - - - - - SSW 39 48 21 26 - - -
07/08:30pm - - - - - S 30 35 16 19 - - -
07/08:00pm - - - - - S 26 32 14 17 - - -
07/07:30pm - - - - - S 30 35 16 19 - - -
07/07:00pm - - - - - S 33 43 18 23 - - -
07/06:30pm - - - - - S 33 39 18 21 - - -
07/06:00pm - - - - - S 32 41 17 22 - - -
07/05:30pm - - - - - SSW 32 41 17 22 - - -
07/05:00pm - - - - - SSW 30 37 16 20 - - -
07/04:30pm - - - - - ESE 20 35 11 19 - - -
07/04:00pm - - - - - ESE 19 30 10 16 - - -
07/03:30pm - - - - - ESE 17 24 9 13 - - -
07/03:00pm - - - - - E 17 32 9 17 - - -
07/02:30pm - - - - - ESE 20 32 11 17 - - -

Other formats

Comma delimited format used in spreadsheet applications
http://www.bom.gov.au/fwo/IDW60801/IDW60801.95620.axf

JavaScript Object Notation format (JSON) in row-major order
http://www.bom.gov.au/fwo/IDW60801/IDW60801.95620.json

Data quality

Most of these data are generated automatically and are frequently updated. Quality checks on data are not normally performed. It is possible for incorrect values to appear. Refer to information at About Latest Weather Observations and please check the disclaimer before using these data.